Time;durP1;ratioP1;P1;durP2;ratioP2;P2;SDS_P1;SDS_P2;PMS_P1;PMS_P2;Temp;Humidity;BMP_temperature;BMP_pressure;BME280_temperature;BME280_humidity;BME280_pressure;Samples;Min_cycle;Max_cycle;Signal;HPM_P1;HPM_P2
2024/01/31 00:03:57;;;;;;;78.88;44.03;;;;;;;;;;10527306;28;20412;-84
2024/01/31 00:09:01;;;;;;;77.60;41.47;;;;;;;;;;10525536;28;20441;-84
2024/01/31 00:14:06;;;;;;;72.43;39.33;;;;;;;;;;10537926;28;20442;-84
2024/01/31 00:19:09;;;;;;;78.13;41.55;;;;;;;;;;10534352;28;20455;-84
2024/01/31 00:24:12;;;;;;;62.90;34.60;;;;;;;;;;10535192;28;20458;-84
2024/01/31 00:29:15;;;;;;;65.97;35.28;;;;;;;;;;10526408;28;20416;-84
2024/01/31 00:34:17;;;;;;;70.33;35.57;;;;;;;;;;10535739;28;20897;-84
2024/01/31 00:39:22;;;;;;;66.97;34.42;;;;;;;;;;10536353;28;20420;-83
2024/01/31 00:44:26;;;;;;;67.00;35.53;;;;;;;;;;10529731;28;20555;-84
2024/01/31 00:49:28;;;;;;;63.88;32.05;;;;;;;;;;10528061;28;20396;-84
2024/01/31 00:54:32;;;;;;;52.20;30.27;;;;;;;;;;10535975;28;20465;-83
2024/01/31 00:59:34;;;;;;;58.67;31.93;;;;;;;;;;10540036;28;20494;-84
2024/01/31 01:04:37;;;;;;;60.97;31.58;;;;;;;;;;10533852;28;20491;-84
2024/01/31 01:09:41;;;;;;;57.53;31.42;;;;;;;;;;10533838;28;20434;-84
2024/01/31 01:14:43;;;;;;;60.55;30.55;;;;;;;;;;10529610;28;20875;-84
2024/01/31 01:19:45;;;;;;;53.10;29.48;;;;;;;;;;10533588;28;20424;-84
2024/01/31 01:24:49;;;;;;;53.05;28.92;;;;;;;;;;10532522;28;20465;-84
2024/01/31 01:29:52;;;;;;;51.60;27.83;;;;;;;;;;10534491;28;20814;-85
2024/01/31 01:34:54;;;;;;;47.20;26.15;;;;;;;;;;10559192;22;20443;-84
2024/01/31 01:39:58;;;;;;;52.63;27.97;;;;;;;;;;10565289;27;20458;-83
2024/01/31 01:45:00;;;;;;;46.33;26.17;;;;;;;;;;10569344;27;20441;-84
2024/01/31 01:50:03;;;;;;;51.53;28.13;;;;;;;;;;10556376;28;20493;-84
2024/01/31 01:55:08;;;;;;;55.13;27.70;;;;;;;;;;10549394;28;20397;-84
2024/01/31 02:00:13;;;;;;;43.95;24.48;;;;;;;;;;10547755;28;20467;-83
2024/01/31 02:05:15;;;;;;;45.05;24.98;;;;;;;;;;10560664;27;20473;-84
2024/01/31 02:10:20;;;;;;;41.92;23.48;;;;;;;;;;10548986;28;20403;-84
2024/01/31 02:15:22;;;;;;;44.20;24.48;;;;;;;;;;10550824;28;20408;-83
2024/01/31 02:20:25;;;;;;;42.15;24.50;;;;;;;;;;10545181;28;20435;-83
2024/01/31 02:25:28;;;;;;;42.93;23.47;;;;;;;;;;10543609;28;20861;-83
2024/01/31 02:30:31;;;;;;;38.17;22.67;;;;;;;;;;10567824;27;20768;-82
2024/01/31 02:35:35;;;;;;;45.38;24.10;;;;;;;;;;10565915;27;20986;-83
2024/01/31 02:40:39;;;;;;;42.88;23.27;;;;;;;;;;10552423;27;20412;-83
2024/01/31 02:45:41;;;;;;;40.25;23.27;;;;;;;;;;10540925;28;20878;-82
2024/01/31 02:50:43;;;;;;;42.10;22.30;;;;;;;;;;10538560;28;20798;-84
2024/01/31 02:55:47;;;;;;;41.50;22.25;;;;;;;;;;10552329;27;20492;-84
2024/01/31 03:00:50;;;;;;;41.95;22.45;;;;;;;;;;10545377;28;20767;-84
2024/01/31 03:05:52;;;;;;;42.17;22.88;;;;;;;;;;10563176;27;20891;-84
2024/01/31 03:10:56;;;;;;;45.23;23.37;;;;;;;;;;10571112;27;20412;-83
2024/01/31 03:15:58;;;;;;;38.35;21.65;;;;;;;;;;10563548;28;20409;-84
2024/01/31 03:21:01;;;;;;;38.15;22.10;;;;;;;;;;10559591;28;20393;-84
2024/01/31 03:26:05;;;;;;;38.10;21.37;;;;;;;;;;10547479;28;20442;-83
2024/01/31 03:31:07;;;;;;;39.10;21.67;;;;;;;;;;10550468;28;20407;-83
2024/01/31 03:36:11;;;;;;;34.13;19.50;;;;;;;;;;10541298;28;20443;-83
2024/01/31 03:41:15;;;;;;;33.88;19.88;;;;;;;;;;10550822;28;20406;-84
2024/01/31 03:46:17;;;;;;;34.00;19.50;;;;;;;;;;10556416;28;20479;-84
2024/01/31 03:51:20;;;;;;;34.22;18.80;;;;;;;;;;10564908;27;20943;-84
2024/01/31 03:56:24;;;;;;;35.22;18.35;;;;;;;;;;10567469;27;20499;-84
2024/01/31 04:01:26;;;;;;;32.70;18.27;;;;;;;;;;10569532;27;20406;-83
2024/01/31 04:06:29;;;;;;;30.63;18.38;;;;;;;;;;10567536;27;20949;-83
2024/01/31 04:11:34;;;;;;;33.42;18.45;;;;;;;;;;10559104;28;20400;-83
2024/01/31 04:16:36;;;;;;;36.35;18.85;;;;;;;;;;10574782;27;20400;-84
2024/01/31 04:21:38;;;;;;;34.80;18.95;;;;;;;;;;10568456;27;20953;-83
2024/01/31 04:26:44;;;;;;;35.35;20.02;;;;;;;;;;10563020;27;20945;-83
2024/01/31 04:31:51;;;;;;;37.70;20.75;;;;;;;;;;10565136;27;20415;-84
2024/01/31 04:36:54;;;;;;;37.20;19.25;;;;;;;;;;10550359;27;20728;-84
2024/01/31 04:41:57;;;;;;;36.15;19.67;;;;;;;;;;10554665;27;20412;-84
2024/01/31 04:47:00;;;;;;;36.08;20.35;;;;;;;;;;10568692;27;20558;-83
2024/01/31 04:52:02;;;;;;;38.08;20.25;;;;;;;;;;10564541;27;20463;-84
2024/01/31 04:57:06;;;;;;;32.50;19.13;;;;;;;;;;10568291;27;20967;-84
2024/01/31 05:02:09;;;;;;;41.13;21.77;;;;;;;;;;10562531;27;20516;-83
2024/01/31 05:07:11;;;;;;;37.10;20.92;;;;;;;;;;10562429;27;20412;-84
2024/01/31 05:12:15;;;;;;;37.30;21.73;;;;;;;;;;10567057;27;20396;-83
2024/01/31 05:17:17;;;;;;;34.47;20.60;;;;;;;;;;10567022;27;20509;-83
2024/01/31 05:22:20;;;;;;;34.60;18.77;;;;;;;;;;10560904;27;20407;-83
2024/01/31 05:27:24;;;;;;;34.23;18.97;;;;;;;;;;10559305;27;20399;-83
2024/01/31 05:32:26;;;;;;;28.33;17.23;;;;;;;;;;10559383;27;20423;-83
2024/01/31 05:37:28;;;;;;;29.35;17.27;;;;;;;;;;10560821;27;20828;-83
2024/01/31 05:42:32;;;;;;;28.03;16.80;;;;;;;;;;10565463;27;20462;-82
2024/01/31 05:47:35;;;;;;;33.23;17.13;;;;;;;;;;10563575;27;20670;-83
2024/01/31 05:52:38;;;;;;;29.35;16.83;;;;;;;;;;10562475;27;20761;-83
2024/01/31 05:57:42;;;;;;;28.20;17.07;;;;;;;;;;10562073;27;20450;-82
2024/01/31 06:02:44;;;;;;;28.52;16.45;;;;;;;;;;10553785;27;20444;-81
2024/01/31 06:07:47;;;;;;;29.02;16.20;;;;;;;;;;10566081;27;20407;-88
2024/01/31 06:12:51;;;;;;;29.27;16.03;;;;;;;;;;10552998;28;20989;-87
2024/01/31 06:17:53;;;;;;;29.65;15.75;;;;;;;;;;10555279;27;20919;-86
2024/01/31 06:22:56;;;;;;;27.57;15.80;;;;;;;;;;10552465;27;20398;-86
2024/01/31 06:28:00;;;;;;;29.90;16.07;;;;;;;;;;10553197;28;21047;-86
2024/01/31 06:33:07;;;;;;;28.03;16.10;;;;;;;;;;10565616;27;20436;-86
2024/01/31 06:38:09;;;;;;;27.17;14.73;;;;;;;;;;10554099;27;20864;-85
2024/01/31 06:43:13;;;;;;;29.08;16.25;;;;;;;;;;10552693;27;20444;-86
2024/01/31 06:48:16;;;;;;;26.58;15.27;;;;;;;;;;10557375;27;20430;-85
2024/01/31 06:53:18;;;;;;;30.30;15.98;;;;;;;;;;10577633;27;20477;-84
2024/01/31 06:58:22;;;;;;;28.20;15.65;;;;;;;;;;10570362;27;20467;-86
2024/01/31 07:03:25;;;;;;;35.25;17.35;;;;;;;;;;10554192;28;20458;-83
2024/01/31 07:08:27;;;;;;;30.13;16.53;;;;;;;;;;10538095;28;20530;-84
2024/01/31 07:13:31;;;;;;;32.67;17.83;;;;;;;;;;10552269;28;20473;-83
2024/01/31 07:18:34;;;;;;;35.47;19.03;;;;;;;;;;10557545;27;20529;-84
2024/01/31 07:23:36;;;;;;;30.55;16.92;;;;;;;;;;10559103;27;20476;-85
2024/01/31 07:28:40;;;;;;;35.42;17.98;;;;;;;;;;10552802;27;20562;-84
2024/01/31 07:33:42;;;;;;;32.50;17.17;;;;;;;;;;10560989;28;21000;-84
2024/01/31 07:38:46;;;;;;;32.53;18.00;;;;;;;;;;10562919;28;20499;-83
2024/01/31 07:43:50;;;;;;;36.08;17.95;;;;;;;;;;10563083;27;21974;-84
2024/01/31 07:48:52;;;;;;;36.92;17.98;;;;;;;;;;10557227;27;20449;-83
2024/01/31 07:53:55;;;;;;;32.65;18.25;;;;;;;;;;10556319;28;21348;-85
2024/01/31 07:58:59;;;;;;;33.03;17.48;;;;;;;;;;10598126;27;20428;-84
2024/01/31 08:04:02;;;;;;;31.13;16.65;;;;;;;;;;10568746;27;20391;-85
2024/01/31 08:09:06;;;;;;;31.02;16.40;;;;;;;;;;10567634;27;20388;-84
2024/01/31 08:14:09;;;;;;;29.73;16.15;;;;;;;;;;10568859;27;20402;-85
2024/01/31 08:19:12;;;;;;;35.33;17.70;;;;;;;;;;10565550;27;20515;-85
2024/01/31 08:24:14;;;;;;;39.40;19.50;;;;;;;;;;10559310;27;20409;-84
2024/01/31 08:29:18;;;;;;;34.30;18.55;;;;;;;;;;10545039;27;20818;-82
2024/01/31 08:34:23;;;;;;;37.17;20.15;;;;;;;;;;10559663;28;20951;-83
2024/01/31 08:39:25;;;;;;;36.25;20.55;;;;;;;;;;10547966;28;20450;-83
2024/01/31 08:44:29;;;;;;;36.33;20.05;;;;;;;;;;10555607;27;20965;-83
2024/01/31 08:49:31;;;;;;;40.65;20.75;;;;;;;;;;10550060;28;20539;-83
2024/01/31 08:54:33;;;;;;;33.90;18.80;;;;;;;;;;10544358;27;20413;-83
2024/01/31 08:59:37;;;;;;;34.17;18.67;;;;;;;;;;10566605;27;20412;-83
2024/01/31 09:04:39;;;;;;;35.35;21.83;;;;;;;;;;10553579;28;20476;-82
2024/01/31 09:09:42;;;;;;;38.05;21.02;;;;;;;;;;10551345;28;20453;-83
2024/01/31 09:14:46;;;;;;;34.03;19.38;;;;;;;;;;10567315;27;20438;-83
2024/01/31 09:19:49;;;;;;;32.85;19.17;;;;;;;;;;10551980;27;20972;-82
2024/01/31 09:24:51;;;;;;;28.13;17.70;;;;;;;;;;10552806;27;20481;-83
2024/01/31 09:29:55;;;;;;;30.20;18.52;;;;;;;;;;10556713;27;20406;-83
2024/01/31 09:34:58;;;;;;;31.23;19.03;;;;;;;;;;10539520;27;21298;-82
2024/01/31 09:40:00;;;;;;;34.50;19.70;;;;;;;;;;10550346;27;20445;-82
2024/01/31 09:45:05;;;;;;;33.42;19.48;;;;;;;;;;10558194;27;20403;-83
2024/01/31 09:50:08;;;;;;;35.47;19.53;;;;;;;;;;10551456;27;20448;-83
2024/01/31 09:55:11;;;;;;;28.95;17.20;;;;;;;;;;10566332;27;20966;-82
2024/01/31 10:00:17;;;;;;;30.20;17.17;;;;;;;;;;10551912;27;21360;-83
2024/01/31 10:05:19;;;;;;;29.85;18.88;;;;;;;;;;10554920;27;20433;-83
2024/01/31 10:10:23;;;;;;;32.23;18.83;;;;;;;;;;10555577;28;20412;-83
2024/01/31 10:15:27;;;;;;;36.20;18.42;;;;;;;;;;10552608;27;20472;-83
2024/01/31 10:20:30;;;;;;;31.73;17.90;;;;;;;;;;10562379;27;20427;-82
2024/01/31 10:25:33;;;;;;;31.80;18.10;;;;;;;;;;10548245;27;20441;-83
2024/01/31 10:30:44;;;;;;;32.58;17.52;;;;;;;;;;10558536;27;20839;-83
2024/01/31 10:35:47;;;;;;;29.00;17.03;;;;;;;;;;10560654;27;20508;-84
2024/01/31 10:40:52;;;;;;;31.77;18.08;;;;;;;;;;10559056;27;20447;-83
2024/01/31 10:45:56;;;;;;;39.65;20.70;;;;;;;;;;10561843;27;20439;-83
2024/01/31 10:51:01;;;;;;;33.30;18.80;;;;;;;;;;10563320;27;20436;-84
2024/01/31 10:56:06;;;;;;;32.85;18.15;;;;;;;;;;10570577;27;20470;-85
2024/01/31 11:01:12;;;;;;;33.38;17.75;;;;;;;;;;10562007;27;20436;-84
2024/01/31 11:06:14;;;;;;;33.50;19.90;;;;;;;;;;10551512;27;20460;-84
2024/01/31 11:11:19;;;;;;;30.98;17.50;;;;;;;;;;10554690;28;20888;-84
2024/01/31 11:16:26;;;;;;;29.93;17.67;;;;;;;;;;10548588;28;20413;-84
2024/01/31 11:21:28;;;;;;;33.15;15.77;;;;;;;;;;10547879;28;20486;-84
2024/01/31 11:26:33;;;;;;;27.92;15.73;;;;;;;;;;10555481;28;20458;-83
2024/01/31 11:31:37;;;;;;;25.20;14.53;;;;;;;;;;10535490;28;20404;-84
2024/01/31 11:36:40;;;;;;;24.77;15.18;;;;;;;;;;10553872;27;20402;-84
2024/01/31 11:41:42;;;;;;;25.55;14.00;;;;;;;;;;10556042;28;20924;-84
2024/01/31 11:46:46;;;;;;;22.25;12.93;;;;;;;;;;10552010;28;20434;-84
2024/01/31 11:51:48;;;;;;;27.42;15.00;;;;;;;;;;10533814;28;20860;-83
2024/01/31 11:56:52;;;;;;;26.67;15.52;;;;;;;;;;10564047;28;20463;-84
2024/01/31 12:01:55;;;;;;;26.67;16.23;;;;;;;;;;10558592;28;20836;-84
2024/01/31 12:07:05;;;;;;;25.42;15.95;;;;;;;;;;10548640;28;20432;-83
2024/01/31 12:12:08;;;;;;;27.00;16.08;;;;;;;;;;10557496;27;20451;-83
2024/01/31 12:17:21;;;;;;;26.02;16.23;;;;;;;;;;10553741;27;20450;-84
2024/01/31 12:22:24;;;;;;;28.10;17.90;;;;;;;;;;10533716;27;20579;-82
2024/01/31 12:27:27;;;;;;;28.35;15.93;;;;;;;;;;10541106;27;20506;-82
2024/01/31 12:32:31;;;;;;;34.63;21.42;;;;;;;;;;10544149;27;20503;-81
2024/01/31 12:37:34;;;;;;;28.20;16.70;;;;;;;;;;10549636;27;20438;-83
2024/01/31 12:42:37;;;;;;;27.02;15.98;;;;;;;;;;10542803;27;21410;-82
2024/01/31 12:47:41;;;;;;;25.88;14.98;;;;;;;;;;10533164;27;20450;-82
2024/01/31 12:52:44;;;;;;;29.95;14.30;;;;;;;;;;10537109;27;20443;-82
2024/01/31 12:57:47;;;;;;;25.75;14.10;;;;;;;;;;10554963;27;20417;-82
2024/01/31 13:02:50;;;;;;;30.10;15.67;;;;;;;;;;10524458;27;20586;-82
2024/01/31 13:07:53;;;;;;;26.63;14.55;;;;;;;;;;10556972;27;20442;-82
2024/01/31 13:12:55;;;;;;;22.88;13.93;;;;;;;;;;10551529;28;20748;-81
2024/01/31 13:17:59;;;;;;;22.52;13.63;;;;;;;;;;10551529;28;20430;-81
2024/01/31 13:23:01;;;;;;;22.35;13.00;;;;;;;;;;10562379;27;20495;-81
2024/01/31 13:28:04;;;;;;;24.45;13.38;;;;;;;;;;10563100;27;20491;-82
2024/01/31 13:33:08;;;;;;;27.30;14.53;;;;;;;;;;10549780;27;20443;-82
2024/01/31 13:38:11;;;;;;;23.42;14.35;;;;;;;;;;10560330;27;20430;-82
2024/01/31 13:43:13;;;;;;;23.65;13.77;;;;;;;;;;10556026;27;20511;-81
2024/01/31 13:48:18;;;;;;;25.05;15.27;;;;;;;;;;10556902;28;20508;-81
2024/01/31 13:53:21;;;;;;;28.47;15.60;;;;;;;;;;10550124;27;21087;-81
2024/01/31 13:58:23;;;;;;;30.67;18.37;;;;;;;;;;10545036;28;20577;-80
2024/01/31 14:03:27;;;;;;;37.83;19.90;;;;;;;;;;10551564;28;20461;-80
2024/01/31 14:08:29;;;;;;;34.67;19.80;;;;;;;;;;10553288;28;20464;-81
2024/01/31 14:13:32;;;;;;;26.95;14.98;;;;;;;;;;10555801;27;20441;-82
2024/01/31 14:18:36;;;;;;;25.55;14.52;;;;;;;;;;10567025;27;20479;-82
2024/01/31 14:23:38;;;;;;;28.70;14.88;;;;;;;;;;10562627;27;20859;-82
2024/01/31 14:28:41;;;;;;;27.77;15.15;;;;;;;;;;10564878;27;20435;-81
2024/01/31 14:33:44;;;;;;;28.80;15.50;;;;;;;;;;10559707;27;20936;-82
2024/01/31 14:38:47;;;;;;;30.05;17.00;;;;;;;;;;10559209;27;20434;-81
2024/01/31 14:43:49;;;;;;;27.90;15.65;;;;;;;;;;10564916;27;20497;-80
2024/01/31 14:48:53;;;;;;;29.40;16.23;;;;;;;;;;10549600;28;20483;-80
2024/01/31 14:53:56;;;;;;;31.48;17.50;;;;;;;;;;10556918;28;20404;-81
2024/01/31 14:58:58;;;;;;;30.77;17.80;;;;;;;;;;10570153;27;20402;-81
2024/01/31 15:04:02;;;;;;;29.48;17.70;;;;;;;;;;10558789;27;20442;-82
2024/01/31 15:09:05;;;;;;;31.33;18.07;;;;;;;;;;10559091;27;20443;-82
2024/01/31 15:14:07;;;;;;;33.90;17.87;;;;;;;;;;10561073;27;20469;-84
2024/01/31 15:19:11;;;;;;;43.70;19.10;;;;;;;;;;10551108;28;20955;-83
2024/01/31 15:24:14;;;;;;;35.92;17.65;;;;;;;;;;10587166;27;20454;-83
2024/01/31 15:29:16;;;;;;;34.20;17.70;;;;;;;;;;10581804;28;20438;-83
2024/01/31 15:34:20;;;;;;;36.50;18.58;;;;;;;;;;10581506;28;20442;-82
2024/01/31 15:39:23;;;;;;;42.85;18.77;;;;;;;;;;10565872;28;20403;-82
2024/01/31 15:44:25;;;;;;;36.53;17.48;;;;;;;;;;10566669;27;20406;-82
2024/01/31 15:49:30;;;;;;;46.10;20.65;;;;;;;;;;10564138;27;20429;-82
2024/01/31 15:54:35;;;;;;;46.65;19.83;;;;;;;;;;10562328;28;20791;-82
2024/01/31 15:59:37;;;;;;;38.60;18.90;;;;;;;;;;10579947;27;21066;-82
2024/01/31 16:04:41;;;;;;;40.80;19.23;;;;;;;;;;10570015;27;20402;-82
2024/01/31 16:09:44;;;;;;;44.93;19.43;;;;;;;;;;10563387;27;20407;-82
2024/01/31 16:14:46;;;;;;;37.25;18.40;;;;;;;;;;10572211;27;20453;-83
2024/01/31 16:19:50;;;;;;;43.90;18.97;;;;;;;;;;10560364;28;20866;-82
2024/01/31 16:24:52;;;;;;;34.97;17.08;;;;;;;;;;10571604;27;20890;-83
2024/01/31 16:29:55;;;;;;;40.53;18.52;;;;;;;;;;10564225;27;20417;-83
2024/01/31 16:34:58;;;;;;;40.93;19.57;;;;;;;;;;10565651;27;20407;-82
2024/01/31 16:40:01;;;;;;;44.38;20.35;;;;;;;;;;10568217;28;20467;-82
2024/01/31 16:45:04;;;;;;;40.67;20.92;;;;;;;;;;10564787;27;20416;-83
2024/01/31 16:50:08;;;;;;;38.20;19.77;;;;;;;;;;10561401;27;20418;-82
2024/01/31 16:55:11;;;;;;;39.07;20.67;;;;;;;;;;10566922;28;20403;-82
2024/01/31 17:00:15;;;;;;;43.90;21.33;;;;;;;;;;10563427;27;20412;-82
2024/01/31 17:05:19;;;;;;;44.35;22.52;;;;;;;;;;10554271;28;20473;-83
2024/01/31 17:10:21;;;;;;;40.33;21.67;;;;;;;;;;10552141;27;20983;-83
2024/01/31 17:15:24;;;;;;;46.22;23.13;;;;;;;;;;10542541;27;20484;-82
2024/01/31 17:20:27;;;;;;;49.03;25.00;;;;;;;;;;10538586;28;21875;-84
2024/01/31 17:25:31;;;;;;;43.65;23.35;;;;;;;;;;10567702;27;20493;-83
2024/01/31 17:30:35;;;;;;;48.65;25.92;;;;;;;;;;10552822;27;20446;-82
2024/01/31 17:35:39;;;;;;;58.53;31.45;;;;;;;;;;10552258;27;20418;-82
2024/01/31 17:40:42;;;;;;;49.35;27.90;;;;;;;;;;10563000;27;20422;-84
2024/01/31 17:45:45;;;;;;;53.37;29.40;;;;;;;;;;10571661;27;20523;-83
2024/01/31 17:50:48;;;;;;;58.92;29.45;;;;;;;;;;10548810;27;20463;-80
2024/01/31 17:55:51;;;;;;;57.28;31.23;;;;;;;;;;10554294;27;20862;-79
2024/01/31 18:00:53;;;;;;;50.87;27.30;;;;;;;;;;10539207;27;20448;-79
2024/01/31 18:05:57;;;;;;;49.60;25.75;;;;;;;;;;10540411;27;20524;-78
2024/01/31 18:10:59;;;;;;;52.58;28.75;;;;;;;;;;10544188;27;20535;-77
2024/01/31 18:16:02;;;;;;;45.13;27.80;;;;;;;;;;10532434;27;20443;-78
2024/01/31 18:21:06;;;;;;;57.45;28.85;;;;;;;;;;10526505;27;20490;-79
2024/01/31 18:26:08;;;;;;;53.30;30.65;;;;;;;;;;10519625;27;20466;-80
2024/01/31 18:31:11;;;;;;;56.75;30.40;;;;;;;;;;10528084;28;20533;-80
2024/01/31 18:36:15;;;;;;;55.42;31.00;;;;;;;;;;10544889;27;20450;-78
2024/01/31 18:41:17;;;;;;;55.95;29.67;;;;;;;;;;10527409;27;20456;-78
2024/01/31 18:46:19;;;;;;;53.67;30.00;;;;;;;;;;10541157;27;20464;-77
2024/01/31 18:51:23;;;;;;;56.67;30.00;;;;;;;;;;10542999;27;20438;-77
2024/01/31 18:56:26;;;;;;;56.10;31.67;;;;;;;;;;10546600;27;20434;-78
2024/01/31 19:01:29;;;;;;;54.40;31.70;;;;;;;;;;10540455;28;20479;-78
2024/01/31 19:06:33;;;;;;;54.22;31.23;;;;;;;;;;10542275;27;20463;-77
2024/01/31 19:11:35;;;;;;;60.38;32.17;;;;;;;;;;10552062;27;20912;-78
2024/01/31 19:16:39;;;;;;;62.88;34.00;;;;;;;;;;10543563;28;20514;-79
2024/01/31 19:21:43;;;;;;;61.45;34.50;;;;;;;;;;10543191;28;20823;-79
2024/01/31 19:26:46;;;;;;;69.25;38.95;;;;;;;;;;10570742;28;20826;-78
2024/01/31 19:31:48;;;;;;;65.78;35.88;;;;;;;;;;10554608;28;20422;-78
2024/01/31 19:36:53;;;;;;;63.57;36.23;;;;;;;;;;10553239;28;20490;-78
2024/01/31 19:41:55;;;;;;;67.45;38.88;;;;;;;;;;10539117;28;20465;-79
2024/01/31 19:46:58;;;;;;;67.78;38.28;;;;;;;;;;10556890;28;20402;-77
2024/01/31 19:52:01;;;;;;;72.18;39.45;;;;;;;;;;10556845;28;20465;-78
2024/01/31 19:57:04;;;;;;;68.87;38.73;;;;;;;;;;10544700;28;20926;-78
2024/01/31 20:02:07;;;;;;;69.47;38.50;;;;;;;;;;10555390;28;20490;-79
2024/01/31 20:07:11;;;;;;;68.82;37.03;;;;;;;;;;10548410;28;20460;-77
2024/01/31 20:12:13;;;;;;;73.32;37.95;;;;;;;;;;10552595;28;20453;-79
2024/01/31 20:17:17;;;;;;;76.53;39.40;;;;;;;;;;10542778;28;20538;-79
2024/01/31 20:22:21;;;;;;;95.40;48.35;;;;;;;;;;10539041;28;20465;-82
2024/01/31 20:27:23;;;;;;;75.47;42.22;;;;;;;;;;10548324;28;20444;-81
2024/01/31 20:32:26;;;;;;;75.30;41.10;;;;;;;;;;10547839;27;20483;-81
2024/01/31 20:37:29;;;;;;;71.93;42.60;;;;;;;;;;10546308;27;20471;-82
2024/01/31 20:42:32;;;;;;;74.83;42.50;;;;;;;;;;10545057;27;20454;-80
2024/01/31 20:47:35;;;;;;;76.72;41.05;;;;;;;;;;10565358;27;20515;-81
2024/01/31 20:52:39;;;;;;;73.38;41.00;;;;;;;;;;10555208;27;20885;-81
2024/01/31 20:57:41;;;;;;;75.18;40.55;;;;;;;;;;10549237;27;20831;-81
2024/01/31 21:02:44;;;;;;;72.50;40.83;;;;;;;;;;10540841;28;20490;-82
2024/01/31 21:07:48;;;;;;;76.80;41.40;;;;;;;;;;10564393;27;20450;-81
2024/01/31 21:12:51;;;;;;;74.93;41.30;;;;;;;;;;10545972;27;20428;-81
2024/01/31 21:17:53;;;;;;;77.20;41.55;;;;;;;;;;10543228;27;20497;-80
2024/01/31 21:22:57;;;;;;;81.07;42.80;;;;;;;;;;10539585;27;20550;-81
2024/01/31 21:28:00;;;;;;;87.10;46.90;;;;;;;;;;10538760;27;20439;-81
2024/01/31 21:33:02;;;;;;;77.55;44.13;;;;;;;;;;10542517;28;20446;-81
2024/01/31 21:38:06;;;;;;;82.07;43.72;;;;;;;;;;10527821;28;20468;-81
2024/01/31 21:43:11;;;;;;;96.47;48.03;;;;;;;;;;10542797;27;21327;-81
2024/01/31 21:48:13;;;;;;;96.87;48.77;;;;;;;;;;10555723;27;20519;-81
2024/01/31 21:53:17;;;;;;;104.05;52.22;;;;;;;;;;10550891;27;20632;-81
2024/01/31 21:58:20;;;;;;;97.35;49.92;;;;;;;;;;10550713;27;20451;-83
2024/01/31 22:03:22;;;;;;;87.97;48.83;;;;;;;;;;10547288;27;20828;-83
2024/01/31 22:08:26;;;;;;;92.13;49.85;;;;;;;;;;10546366;27;20977;-82
2024/01/31 22:13:28;;;;;;;87.22;48.47;;;;;;;;;;10543547;27;20432;-83
2024/01/31 22:18:32;;;;;;;91.07;49.42;;;;;;;;;;10542059;27;20432;-81
2024/01/31 22:23:35;;;;;;;89.63;48.87;;;;;;;;;;10520071;27;20462;-82
2024/01/31 22:28:38;;;;;;;96.17;49.87;;;;;;;;;;10527524;27;20518;-83
2024/01/31 22:33:40;;;;;;;88.28;49.83;;;;;;;;;;10522047;28;20436;-84
2024/01/31 22:38:45;;;;;;;90.47;50.50;;;;;;;;;;10525059;28;20978;-84
2024/01/31 22:43:47;;;;;;;96.25;49.55;;;;;;;;;;10529317;27;20908;-84
2024/01/31 22:48:49;;;;;;;87.35;49.03;;;;;;;;;;10527439;27;20519;-83
2024/01/31 22:53:53;;;;;;;87.45;49.03;;;;;;;;;;10538008;27;20479;-83
2024/01/31 22:58:56;;;;;;;94.10;47.43;;;;;;;;;;10545783;27;20448;-82
2024/01/31 23:04:02;;;;;;;82.90;46.05;;;;;;;;;;10516711;28;20477;-83
2024/01/31 23:09:06;;;;;;;86.10;47.60;;;;;;;;;;10526732;28;20506;-82
2024/01/31 23:14:09;;;;;;;84.57;47.83;;;;;;;;;;10528879;27;20912;-83
2024/01/31 23:19:12;;;;;;;83.10;46.45;;;;;;;;;;10529860;27;20442;-82
2024/01/31 23:24:15;;;;;;;88.47;47.03;;;;;;;;;;10527655;28;20442;-82
2024/01/31 23:29:20;;;;;;;86.85;47.40;;;;;;;;;;10535586;28;20443;-83
2024/01/31 23:34:22;;;;;;;77.25;44.85;;;;;;;;;;10545054;28;20496;-82
2024/01/31 23:39:26;;;;;;;81.90;45.90;;;;;;;;;;10532622;28;20509;-82
2024/01/31 23:44:28;;;;;;;80.63;45.35;;;;;;;;;;10549435;28;20505;-83
2024/01/31 23:49:31;;;;;;;82.47;44.90;;;;;;;;;;10553439;28;20448;-81
2024/01/31 23:54:35;;;;;;;80.65;44.40;;;;;;;;;;10545721;28;20404;-83
2024/01/31 23:59:37;;;;;;;82.10;46.22;;;;;;;;;;10543575;28;20494;-84
